createdAt,value
2023-01-06T00:02:09.781Z,1.17
2023-01-06T00:04:43.147Z,0.80
2023-01-06T00:07:13.927Z,0.68
2023-01-06T00:09:44.789Z,0.88
2023-01-06T00:12:15.587Z,0.70
2023-01-06T00:14:47.778Z,0.82
2023-01-06T00:17:18.860Z,0.52
2023-01-06T00:19:52.168Z,0.63
2023-01-06T00:22:23.090Z,0.55
2023-01-06T00:24:54.096Z,0.73
2023-01-06T00:27:24.957Z,0.55
2023-01-06T00:29:56.704Z,0.60
2023-01-06T00:32:27.533Z,0.70
2023-01-06T00:35:00.973Z,0.60
2023-01-06T00:37:31.950Z,0.70
2023-01-06T00:40:02.754Z,0.70
2023-01-06T00:42:33.503Z,0.60
2023-01-06T00:45:04.308Z,0.60
2023-01-06T00:47:35.094Z,0.80
2023-01-06T00:50:09.548Z,0.60
2023-01-06T00:52:43.299Z,0.80
2023-01-06T00:55:14.142Z,0.50
2023-01-06T00:57:46.381Z,1.00
2023-01-06T01:00:17.752Z,0.82
2023-01-06T01:02:48.632Z,0.60
2023-01-06T01:05:22.084Z,0.77
2023-01-06T01:07:52.998Z,0.60
2023-01-06T01:10:24.179Z,0.63
2023-01-06T01:12:56.997Z,0.70
2023-01-06T01:15:28.205Z,0.80
2023-01-06T01:17:58.949Z,0.93
2023-01-06T01:20:32.265Z,1.40
2023-01-06T01:23:03.005Z,1.60
2023-01-06T01:25:33.765Z,1.08
2023-01-06T01:28:04.530Z,1.20
2023-01-06T01:30:35.274Z,1.40
2023-01-06T01:33:06.065Z,0.90
2023-01-06T01:35:39.380Z,0.80
2023-01-06T01:38:10.166Z,0.60
2023-01-06T01:40:40.915Z,1.00
2023-01-06T01:43:15.181Z,1.15
2023-01-06T01:45:48.075Z,0.52
2023-01-06T01:48:26.750Z,0.98
2023-01-06T01:51:01.906Z,1.23
2023-01-06T01:53:34.992Z,0.65
2023-01-06T01:56:10.601Z,0.77
2023-01-06T01:58:46.396Z,0.88
2023-01-06T02:01:17.517Z,0.98
2023-01-06T02:03:48.528Z,0.90
2023-01-06T02:06:24.869Z,0.70
2023-01-06T02:11:32.389Z,0.65
2023-01-06T02:14:11.977Z,1.00
2023-01-06T02:16:53.607Z,0.80
2023-01-06T02:19:56.087Z,0.98
2023-01-06T02:22:50.783Z,1.00
2023-01-06T02:25:44.452Z,0.90
2023-01-06T02:28:52.535Z,1.67
2023-01-06T02:31:57.865Z,1.20
2023-01-06T02:34:42.178Z,1.00
2023-01-06T02:37:32.445Z,0.95
2023-01-06T02:40:16.609Z,0.95
2023-01-06T02:42:59.873Z,1.00
2023-01-06T02:45:41.281Z,0.90
2023-01-06T02:48:21.437Z,0.85
2023-01-06T02:50:59.970Z,0.93
2023-01-06T02:53:37.631Z,0.80
2023-01-06T02:56:09.068Z,0.70
2023-01-06T02:58:48.550Z,1.30
2023-01-06T03:01:24.506Z,0.77
2023-01-06T03:04:01.963Z,0.70
2023-01-06T03:06:35.549Z,0.98
2023-01-06T03:09:08.597Z,0.80
2023-01-06T03:11:46.498Z,1.15
2023-01-06T03:14:22.152Z,1.10
2023-01-06T03:16:53.054Z,0.80
2023-01-06T03:19:27.460Z,0.90
2023-01-06T03:21:59.179Z,0.93
2023-01-06T03:24:30.868Z,0.73
2023-01-06T03:27:02.903Z,0.77
2023-01-06T03:29:34.003Z,1.15
2023-01-06T03:32:08.394Z,0.90
2023-01-06T03:34:54.378Z,0.70
2023-01-06T03:37:31.955Z,1.10
2023-01-06T03:40:12.641Z,1.02
2023-01-06T03:43:01.755Z,0.80
2023-01-06T03:45:50.987Z,1.02
2023-01-06T03:48:34.612Z,0.88
2023-01-06T03:51:14.003Z,1.00
2023-01-06T03:53:52.094Z,0.88
2023-01-06T03:56:26.478Z,1.02
2023-01-06T03:59:01.350Z,0.80
2023-01-06T04:01:32.782Z,0.63
2023-01-06T04:04:05.466Z,0.52
2023-01-06T04:06:39.884Z,0.60
2023-01-06T04:09:10.814Z,0.70
2023-01-06T04:11:54.199Z,0.57
2023-01-06T04:14:25.051Z,0.47
2023-01-06T04:16:56.766Z,0.70
2023-01-06T04:19:27.566Z,0.77
2023-01-06T04:22:01.163Z,0.60
2023-01-06T04:24:33.952Z,0.50
2023-01-06T04:27:05.008Z,0.80
2023-01-06T04:29:35.938Z,0.60
2023-01-06T04:32:08.127Z,0.50
2023-01-06T04:34:41.637Z,0.40
2023-01-06T04:37:15.169Z,0.52
2023-01-06T04:39:45.937Z,0.35
2023-01-06T04:42:16.724Z,0.80
2023-01-06T04:44:47.498Z,0.43
2023-01-06T04:47:18.236Z,0.43
2023-01-06T04:49:48.978Z,0.40
2023-01-06T04:52:22.299Z,0.30
2023-01-06T04:54:53.011Z,0.60
2023-01-06T04:57:23.839Z,0.63
2023-01-06T04:59:54.612Z,0.60
2023-01-06T05:02:25.379Z,0.70
2023-01-06T05:04:56.055Z,0.85
2023-01-06T05:07:29.468Z,0.50
2023-01-06T05:10:00.366Z,0.52
2023-01-06T05:12:31.209Z,0.82
2023-01-06T05:15:02.084Z,0.57
2023-01-06T05:17:32.946Z,0.65
2023-01-06T05:20:03.593Z,0.40
2023-01-06T05:22:37.505Z,0.85
2023-01-06T05:25:09.200Z,0.45
2023-01-06T05:27:40.198Z,0.60
2023-01-06T05:30:12.147Z,0.88
2023-01-06T05:32:42.826Z,0.82
2023-01-06T05:35:13.731Z,0.63
2023-01-06T05:37:47.122Z,0.70
2023-01-06T05:40:17.948Z,0.70
2023-01-06T05:42:48.685Z,0.60
2023-01-06T05:45:19.596Z,0.52
2023-01-06T05:47:50.317Z,0.50
2023-01-06T05:50:21.391Z,0.80
2023-01-06T05:52:59.265Z,0.60
2023-01-06T05:55:30.698Z,0.55
2023-01-06T05:58:01.582Z,0.52
2023-01-06T06:00:31.847Z,0.68
2023-01-06T06:03:02.389Z,0.77
2023-01-06T06:05:32.558Z,0.60
2023-01-06T06:08:06.784Z,0.80
2023-01-06T06:10:37.205Z,0.60
2023-01-06T06:13:07.589Z,0.90
2023-01-06T06:15:37.965Z,1.13
2023-01-06T06:18:08.732Z,1.55
2023-01-06T06:20:39.000Z,1.00
2023-01-06T06:23:11.893Z,0.88
2023-01-06T06:25:42.165Z,1.02
2023-01-06T06:28:12.536Z,1.10
2023-01-06T06:30:42.844Z,1.10
2023-01-06T06:33:13.276Z,1.00
2023-01-06T06:35:43.598Z,1.13
2023-01-06T06:38:16.439Z,0.90
2023-01-06T06:40:47.499Z,1.08
2023-01-06T06:43:17.875Z,1.58
2023-01-06T06:45:48.196Z,1.30
2023-01-06T06:48:19.249Z,2.05
2023-01-06T06:50:49.519Z,1.00
2023-01-06T06:53:22.419Z,1.05
2023-01-06T06:55:52.666Z,1.30
2023-01-06T06:58:23.072Z,1.15
2023-01-06T07:00:53.531Z,1.20
2023-01-06T07:03:25.365Z,1.10
2023-01-06T07:05:56.531Z,1.23
2023-01-06T07:08:29.904Z,1.20
2023-01-06T07:11:00.097Z,1.00
2023-01-06T07:13:30.565Z,1.27
2023-01-06T07:16:02.526Z,1.30
2023-01-06T07:18:32.813Z,1.10
2023-01-06T07:21:03.073Z,0.90
2023-01-06T07:23:36.816Z,1.30
2023-01-06T07:26:07.355Z,1.10
2023-01-06T07:28:37.731Z,1.10
2023-01-06T07:31:08.266Z,1.50
2023-01-06T07:33:38.513Z,1.10
2023-01-06T07:36:09.879Z,1.02
2023-01-06T07:38:42.715Z,1.25
2023-01-06T07:41:13.574Z,1.90
2023-01-06T07:43:43.876Z,1.20
2023-01-06T07:46:14.249Z,1.00
2023-01-06T07:48:44.598Z,1.60
2023-01-06T07:51:14.901Z,1.38
2023-01-06T07:53:47.926Z,1.48
2023-01-06T07:56:18.407Z,1.00
2023-01-06T07:58:48.714Z,1.15
2023-01-06T08:01:19.379Z,0.82
2023-01-06T08:03:49.835Z,1.45
2023-01-06T08:06:20.073Z,1.38
2023-01-06T08:08:53.022Z,0.98
2023-01-06T08:11:23.562Z,0.98
2023-01-06T08:13:53.850Z,1.13
2023-01-06T08:16:24.241Z,1.90
2023-01-06T08:18:54.514Z,1.27
2023-01-06T08:21:24.838Z,1.75
2023-01-06T08:23:57.659Z,1.30
2023-01-06T08:26:28.014Z,1.17
2023-01-06T08:28:58.336Z,1.30
2023-01-06T08:31:28.608Z,1.05
2023-01-06T08:33:59.183Z,1.30
2023-01-06T08:36:30.360Z,1.30
2023-01-06T08:39:03.228Z,1.52
2023-01-06T08:41:33.563Z,1.73
2023-01-06T08:44:03.797Z,1.10
2023-01-06T08:46:34.273Z,1.00
2023-01-06T08:49:04.662Z,1.40
2023-01-06T08:51:35.821Z,1.05
2023-01-06T08:54:08.757Z,1.10
2023-01-06T08:56:39.124Z,1.20
2023-01-06T08:59:09.827Z,1.00
2023-01-06T09:01:40.450Z,1.10
2023-01-06T09:04:11.750Z,1.60
2023-01-06T09:06:42.591Z,1.20
2023-01-06T09:09:16.001Z,1.10
2023-01-06T09:11:47.019Z,1.42
2023-01-06T09:14:17.305Z,2.10
2023-01-06T09:16:48.846Z,1.27
2023-01-06T09:19:20.627Z,1.10
2023-01-06T09:21:50.995Z,1.20
2023-01-06T09:24:23.845Z,2.05
2023-01-06T09:26:54.102Z,1.27
2023-01-06T09:29:24.425Z,1.10
2023-01-06T09:31:54.717Z,1.20
2023-01-06T09:34:25.015Z,1.33
2023-01-06T09:36:55.301Z,1.20
2023-01-06T09:39:28.205Z,1.27
2023-01-06T09:42:35.673Z,1.05
2023-01-06T09:45:09.262Z,1.08
2023-01-06T09:47:43.660Z,1.50
2023-01-06T09:50:31.857Z,1.00
2023-01-06T09:53:04.990Z,2.17
2023-01-06T09:55:42.067Z,1.30
2023-01-06T09:58:16.693Z,1.35
2023-01-06T10:00:48.784Z,0.80
2023-01-06T10:03:21.216Z,1.35
2023-01-06T10:06:03.462Z,1.73
2023-01-06T10:08:42.930Z,1.40
2023-01-06T10:11:23.423Z,1.27
2023-01-06T10:14:08.008Z,1.10
2023-01-06T10:16:49.497Z,1.30
2023-01-06T10:19:29.717Z,1.40
2023-01-06T10:22:06.286Z,1.42
2023-01-06T10:24:51.977Z,1.55
2023-01-06T10:27:30.968Z,2.20
2023-01-06T10:30:03.428Z,2.22
2023-01-06T10:32:36.988Z,3.05
2023-01-06T10:35:16.273Z,3.58
2023-01-06T10:37:49.318Z,4.80
2023-01-06T10:40:23.829Z,5.70
2023-01-06T10:43:03.998Z,6.03
2023-01-06T10:45:38.133Z,3.60
2023-01-06T10:48:11.163Z,3.95
2023-01-06T10:50:41.801Z,1.50
2023-01-06T10:53:14.270Z,1.80
2023-01-06T10:55:49.967Z,1.52
2023-01-06T10:58:32.930Z,1.48
2023-01-06T11:01:09.432Z,1.50
2023-01-06T11:03:43.370Z,2.35
2023-01-06T11:06:21.597Z,1.80
2023-01-06T11:08:52.177Z,1.40
2023-01-06T11:11:28.160Z,1.88
2023-01-06T11:14:05.630Z,1.33
2023-01-06T11:19:09.471Z,1.25
2023-01-06T11:21:44.802Z,1.15
2023-01-06T11:24:21.625Z,1.38
2023-01-06T11:29:34.057Z,1.50
2023-01-06T11:32:07.888Z,2.00
2023-01-06T11:34:38.242Z,1.80
2023-01-06T11:37:08.778Z,1.55
2023-01-06T11:39:41.396Z,2.10
2023-01-06T11:42:15.756Z,1.77
2023-01-06T11:44:48.753Z,2.22
2023-01-06T11:47:22.583Z,1.88
2023-01-06T11:49:55.076Z,1.90
2023-01-06T11:52:31.146Z,1.92
2023-01-06T11:55:04.404Z,1.60
2023-01-06T11:57:41.892Z,1.20
2023-01-06T12:00:34.093Z,1.02
2023-01-06T12:03:15.918Z,1.10
2023-01-06T12:05:53.534Z,1.20
2023-01-06T12:08:27.383Z,0.65
2023-01-06T12:11:02.490Z,1.35
2023-01-06T12:13:44.147Z,1.10
2023-01-06T12:16:33.975Z,0.95
2023-01-06T12:19:05.127Z,0.68
2023-01-06T12:21:37.873Z,0.75
2023-01-06T12:24:09.870Z,0.90
2023-01-06T12:26:40.228Z,0.85
2023-01-06T12:29:12.058Z,1.10
2023-01-06T12:31:50.881Z,0.95
2023-01-06T12:34:25.824Z,1.65
2023-01-06T12:37:04.464Z,1.35
2023-01-06T12:39:45.811Z,1.40
2023-01-06T12:42:26.373Z,1.27
2023-01-06T12:45:03.071Z,1.60
2023-01-06T12:47:40.620Z,1.05
2023-01-06T12:50:19.915Z,1.10
2023-01-06T12:52:54.316Z,1.17
2023-01-06T12:55:32.493Z,3.40
2023-01-06T12:58:09.282Z,2.17
2023-01-06T13:00:51.551Z,1.50
2023-01-06T13:03:47.622Z,2.65
2023-01-06T13:06:33.455Z,2.15
2023-01-06T13:09:16.144Z,0.70
2023-01-06T13:12:11.831Z,2.03
2023-01-06T13:14:48.970Z,1.00
2023-01-06T13:17:25.769Z,0.93
2023-01-06T13:20:02.767Z,1.17
2023-01-06T13:25:49.609Z,1.52
2023-01-06T13:28:31.116Z,0.80
2023-01-06T13:31:40.995Z,1.77
2023-01-06T13:34:31.872Z,0.82
2023-01-06T13:37:34.572Z,1.20
2023-01-06T13:40:10.336Z,0.60
2023-01-06T13:42:45.369Z,0.90
2023-01-06T13:45:21.816Z,0.50
2023-01-06T13:47:52.829Z,0.70
2023-01-06T13:50:24.625Z,0.40
2023-01-06T13:52:58.343Z,0.70
2023-01-06T13:55:32.320Z,0.60
2023-01-06T13:58:38.608Z,0.52
2023-01-06T14:01:13.862Z,0.40
2023-01-06T14:03:45.775Z,0.40
2023-01-06T14:06:36.898Z,0.68
2023-01-06T14:09:07.407Z,0.40
2023-01-06T14:11:40.176Z,0.70
2023-01-06T14:14:28.482Z,1.05
2023-01-06T14:17:02.237Z,1.00
2023-01-06T14:19:36.781Z,0.80
2023-01-06T14:22:18.121Z,0.70
2023-01-06T14:24:54.001Z,0.70
2023-01-06T14:27:54.069Z,0.60
2023-01-06T14:30:26.941Z,0.50
2023-01-06T14:33:29.799Z,1.02
2023-01-06T14:36:09.569Z,0.75
2023-01-06T14:38:46.470Z,0.60
2023-01-06T14:43:55.538Z,0.68
2023-01-06T14:46:29.645Z,0.60
2023-01-06T14:49:03.843Z,0.50
2023-01-06T14:51:37.753Z,0.52
2023-01-06T14:54:14.736Z,0.43
2023-01-06T14:59:25.385Z,0.55
2023-01-06T15:02:02.237Z,0.63
2023-01-06T15:07:22.694Z,1.02
2023-01-06T15:09:54.106Z,0.88
2023-01-06T15:12:28.444Z,0.90
2023-01-06T15:15:00.368Z,0.60
2023-01-06T15:17:31.432Z,1.08
2023-01-06T15:20:02.037Z,0.88
2023-01-06T15:22:34.927Z,0.73
2023-01-06T15:25:05.285Z,0.80
2023-01-06T15:27:35.914Z,0.60
2023-01-06T15:30:06.751Z,0.70
2023-01-06T15:32:37.512Z,1.02
2023-01-06T15:35:08.707Z,0.70
2023-01-06T15:37:41.696Z,0.80
2023-01-06T15:40:20.907Z,0.80
2023-01-06T15:42:51.529Z,0.80
2023-01-06T15:45:32.019Z,1.00
2023-01-06T15:48:05.771Z,0.73
2023-01-06T15:50:37.346Z,0.65
2023-01-06T15:53:24.714Z,0.40
2023-01-06T15:55:56.900Z,0.68
2023-01-06T15:58:30.495Z,0.70
2023-01-06T16:01:04.256Z,0.73
2023-01-06T16:03:35.815Z,0.70
2023-01-06T16:06:12.222Z,0.80
2023-01-06T16:08:47.385Z,0.80
2023-01-06T16:11:44.749Z,0.70
2023-01-06T16:14:31.497Z,1.10
2023-01-06T16:17:11.164Z,0.37
2023-01-06T16:19:48.178Z,0.50
2023-01-06T16:22:49.196Z,0.50
2023-01-06T16:25:29.344Z,0.93
2023-01-06T16:28:02.392Z,0.65
2023-01-06T16:30:34.006Z,0.75
2023-01-06T16:33:04.470Z,0.47
2023-01-06T16:35:38.214Z,0.70
2023-01-06T16:38:09.121Z,0.80
2023-01-06T16:40:41.917Z,0.65
2023-01-06T16:43:12.192Z,2.38
2023-01-06T16:45:47.672Z,0.73
2023-01-06T16:48:19.373Z,1.23
2023-01-06T16:50:54.939Z,1.10
2023-01-06T16:53:27.815Z,1.10
2023-01-06T16:56:00.939Z,1.33
2023-01-06T16:58:33.880Z,1.80
2023-01-06T17:01:12.034Z,1.40
2023-01-06T17:03:44.897Z,2.33
2023-01-06T17:06:19.680Z,4.82
2023-01-06T17:08:51.058Z,2.85
2023-01-06T17:11:26.042Z,1.40
2023-01-06T17:13:59.082Z,2.22
2023-01-06T17:16:34.130Z,1.20
2023-01-06T17:19:06.836Z,1.80
2023-01-06T17:21:39.401Z,3.17
2023-01-06T17:24:15.343Z,2.25
2023-01-06T17:26:52.370Z,1.90
2023-01-06T17:31:58.048Z,1.50
2023-01-06T17:37:13.156Z,3.00
2023-01-06T17:39:45.879Z,1.65
2023-01-06T17:42:34.056Z,1.88
2023-01-06T17:45:04.839Z,2.42
2023-01-06T17:47:45.725Z,2.08
2023-01-06T17:50:33.262Z,2.35
2023-01-06T17:55:55.293Z,1.50
2023-01-06T17:58:31.466Z,2.65
2023-01-06T18:01:03.545Z,1.85
2023-01-06T18:03:36.265Z,1.65
2023-01-06T18:06:26.517Z,1.85
2023-01-06T18:09:11.109Z,2.60
2023-01-06T18:11:43.653Z,2.40
2023-01-06T18:14:30.938Z,2.17
2023-01-06T18:17:05.136Z,2.20
2023-01-06T18:19:38.742Z,2.20
2023-01-06T18:22:20.028Z,1.92
2023-01-06T18:24:52.175Z,2.63
2023-01-06T18:27:27.314Z,2.40
2023-01-06T18:30:21.119Z,2.30
2023-01-06T18:32:52.514Z,2.17
2023-01-06T18:35:24.932Z,2.08
2023-01-06T18:37:55.585Z,5.25
2023-01-06T18:40:28.061Z,4.63
2023-01-06T18:42:59.291Z,2.50
2023-01-06T18:45:36.696Z,2.60
2023-01-06T18:48:16.835Z,3.00
2023-01-06T18:50:48.409Z,2.30
2023-01-06T18:53:25.335Z,2.60
2023-01-06T18:58:47.080Z,2.78
2023-01-06T19:01:31.169Z,2.40
2023-01-06T19:04:05.836Z,3.72
2023-01-06T19:06:48.407Z,7.75
2023-01-06T19:09:34.880Z,3.78
2023-01-06T19:12:21.289Z,2.97
2023-01-06T19:14:55.254Z,2.67
2023-01-06T19:17:31.756Z,3.80
2023-01-06T19:20:04.618Z,2.72
2023-01-06T19:22:38.194Z,5.60
2023-01-06T19:25:19.029Z,4.70
2023-01-06T19:27:52.068Z,2.72
2023-01-06T19:30:44.426Z,2.90
2023-01-06T19:33:47.081Z,3.75
2023-01-06T19:36:40.719Z,3.40
2023-01-06T19:39:27.839Z,2.28
2023-01-06T19:42:01.913Z,2.45
2023-01-06T19:44:35.257Z,3.10
2023-01-06T19:47:22.390Z,2.55
2023-01-06T19:50:00.186Z,2.25
2023-01-06T19:52:35.378Z,2.50
2023-01-06T19:55:21.887Z,2.15
2023-01-06T19:57:54.793Z,3.42
2023-01-06T20:00:31.490Z,2.97
2023-01-06T20:03:04.768Z,2.95
2023-01-06T20:05:37.708Z,3.13
2023-01-06T20:08:08.556Z,3.08
2023-01-06T20:10:38.990Z,3.35
2023-01-06T20:13:09.290Z,3.20
2023-01-06T20:15:39.643Z,3.90
2023-01-06T20:18:10.200Z,2.83
2023-01-06T20:20:43.226Z,2.92
2023-01-06T20:23:14.454Z,2.97
2023-01-06T20:25:45.267Z,2.00
2023-01-06T20:28:16.815Z,2.47
2023-01-06T20:30:47.641Z,2.60
2023-01-06T20:33:18.182Z,2.80
2023-01-06T20:35:51.049Z,2.42
2023-01-06T20:38:21.348Z,2.40
2023-01-06T20:40:51.567Z,3.25
2023-01-06T20:43:21.986Z,2.90
2023-01-06T20:45:52.409Z,2.78
2023-01-06T20:48:22.769Z,2.65
2023-01-06T20:50:55.561Z,2.10
2023-01-06T20:53:26.031Z,2.00
2023-01-06T20:55:57.640Z,1.83
2023-01-06T20:58:28.150Z,2.20
2023-01-06T21:00:58.999Z,4.30
2023-01-06T21:03:29.935Z,2.90
2023-01-06T21:06:05.785Z,3.00
2023-01-06T21:08:36.599Z,2.40
2023-01-06T21:11:07.653Z,2.80
2023-01-06T21:13:38.725Z,4.80
2023-01-06T21:16:10.575Z,2.17
2023-01-06T21:18:44.133Z,6.80
2023-01-06T21:21:17.643Z,11.95
2023-01-06T21:23:48.581Z,2.30
2023-01-06T21:26:19.585Z,8.77
2023-01-06T21:28:52.372Z,3.90
2023-01-06T21:31:26.027Z,7.93
2023-01-06T21:33:57.048Z,3.33
2023-01-06T21:36:30.404Z,7.63
2023-01-06T21:39:01.307Z,3.67
2023-01-06T21:41:44.320Z,3.00
2023-01-06T21:44:15.251Z,5.63
2023-01-06T21:46:46.027Z,4.53
2023-01-06T21:49:16.885Z,3.15
2023-01-06T21:51:51.529Z,2.03
2023-01-06T21:54:22.319Z,1.73
2023-01-06T21:56:53.551Z,2.70
2023-01-06T21:59:24.948Z,2.45
2023-01-06T22:01:55.867Z,1.70
2023-01-06T22:04:26.680Z,1.48
2023-01-06T22:07:04.356Z,1.55
2023-01-06T22:09:35.436Z,1.55
2023-01-06T22:12:07.562Z,1.63
2023-01-06T22:14:39.092Z,1.67
2023-01-06T22:17:10.576Z,1.55
2023-01-06T22:19:42.169Z,1.38
2023-01-06T22:22:16.446Z,1.40
2023-01-06T22:24:47.686Z,1.20
2023-01-06T22:27:18.379Z,1.30
2023-01-06T22:29:49.101Z,1.27
2023-01-06T22:32:19.818Z,1.27
2023-01-06T22:34:51.301Z,1.08
2023-01-06T22:37:24.625Z,1.20
2023-01-06T22:39:55.427Z,1.52
2023-01-06T22:42:26.164Z,1.60
2023-01-06T22:44:56.932Z,1.20
2023-01-06T22:47:27.721Z,1.02
2023-01-06T22:49:59.017Z,1.58
2023-01-06T22:52:32.759Z,1.45
2023-01-06T22:55:03.535Z,1.52
2023-01-06T22:57:34.261Z,1.35
2023-01-06T23:00:05.219Z,1.63
2023-01-06T23:02:36.218Z,1.40
2023-01-06T23:05:07.447Z,1.90
2023-01-06T23:07:44.516Z,1.58
2023-01-06T23:10:16.910Z,1.73
2023-01-06T23:12:47.706Z,1.65
2023-01-06T23:15:18.762Z,1.75
2023-01-06T23:17:49.448Z,1.85
2023-01-06T23:20:20.333Z,2.10
2023-01-06T23:22:53.731Z,2.00
2023-01-06T23:25:24.505Z,2.10
2023-01-06T23:27:55.267Z,2.70
2023-01-06T23:30:26.054Z,1.73
2023-01-06T23:32:56.854Z,1.77
2023-01-06T23:35:27.783Z,0.95
2023-01-06T23:38:03.433Z,1.45
2023-01-06T23:40:34.802Z,1.33
2023-01-06T23:43:05.608Z,1.45
2023-01-06T23:45:36.390Z,1.10
2023-01-06T23:48:07.394Z,1.45
2023-01-06T23:50:38.161Z,1.20
2023-01-06T23:53:11.540Z,1.20
2023-01-06T23:55:42.277Z,1.30
2023-01-06T23:58:13.113Z,1.13
